Latest Weather Observations for Port Fairy

IDV60801

Issued at 4:42 pm EDT Thursday 28 January 2021 (issued every 10 minutes, with the page automatically refreshed every 10 minutes)

About weather observations | Map of weather stations | Latest weather observations for VIC | Other Formats
Station Details ID: 090175 Name: PORT FAIRY AWS Lat: -38.39 Lon: 142.23 Height: 10.0 m
Data from the previous 72 hours. | See also: Recent months at Port Fairy
Date/Time
EDT
Temp
°C
App
Temp
°C
Dew
Point
°C
Rel
Hum
%
Delta-T
°C
Wind Press
QNH
hPa
Press
MSL
hPa
Rain since
9am
mm
Dir  Spd
km/h
Gust
km/h
Spd
kts
Gust
kts
28/04:30pm 19.7 16.3 15.8 78 2.3 ESE 28 41 15 22 1012.5 1012.5 -
28/04:00pm 21.2 18.3 16.2 73 3.0 ESE 26 39 14 21 1012.7 1012.7 -
28/03:30pm 20.7 17.0 16.1 75 2.8 ESE 30 41 16 22 1013.2 1013.2 -
28/03:00pm 21.6 19.7 16.6 73 3.0 ESE 22 32 12 17 1013.8 1013.8 -
28/02:30pm 21.6 19.3 16.6 73 3.0 SE 24 33 13 18 1014.4 1014.4 -
28/02:00pm 21.7 19.7 16.4 72 3.2 SE 22 30 12 16 1014.9 1014.9 -
28/01:30pm 21.7 20.1 16.4 72 3.2 SE 20 30 11 16 1014.9 1014.9 -
28/01:00pm 21.0 20.2 16.2 74 2.9 ESE 15 20 8 11 1014.9 1014.9 -
28/12:30pm 21.5 20.6 15.8 70 3.4 E 15 22 8 12 1014.7 1014.7 -
28/12:00pm 21.6 20.1 15.2 67 3.8 E 17 30 9 16 1014.9 1014.9 -
28/11:30am 20.8 18.6 14.5 67 3.7 E 19 32 10 17 1015.7 1015.7 -
28/11:00am 21.2 19.5 14.8 67 3.8 ENE 17 28 9 15 1016.3 1016.3 -
28/10:30am 20.5 18.1 14.4 68 3.6 ENE 20 30 11 16 1016.4 1016.4 -
28/10:00am 19.4 16.9 14.0 71 3.1 ENE 20 30 11 16 1016.7 1016.7 -
28/09:30am 18.5 14.6 13.4 72 2.9 ENE 26 39 14 21 1016.7 1016.7 -
28/09:00am 18.1 14.6 13.4 74 2.7 ENE 24 41 13 22 1016.6 1016.6 -
28/08:30am 18.0 15.2 13.3 74 2.7 ENE 20 35 11 19 1016.5 1016.5 -
28/08:00am 17.3 14.4 12.8 75 2.5 ENE 20 37 11 20 1016.4 1016.4 -
28/07:30am 16.9 14.5 12.6 76 2.4 ENE 17 28 9 15 1016.2 1016.2 -
28/07:00am 16.8 14.5 12.9 78 2.2 E 17 24 9 13 1015.9 1015.9 -
28/06:30am 17.0 15.1 13.1 78 2.2 E 15 24 8 13 1015.5 1015.5 -
28/06:00am 17.4 15.1 12.9 75 2.5 E 17 28 9 15 1015.5 1015.5 -
28/05:30am 17.4 13.6 12.5 73 2.7 E 24 37 13 20 1015.5 1015.5 -
28/05:00am 17.6 14.7 12.9 74 2.6 E 20 32 11 17 1015.5 1015.5 -
28/04:30am 17.5 15.1 12.8 74 2.6 E 17 26 9 14 1015.6 1015.6 -
28/04:00am 17.4 15.4 12.7 74 2.6 E 15 26 8 14 1015.9 1015.9 -
28/03:30am 17.5 15.5 12.8 74 2.6 E 15 28 8 15 1015.8 1015.8 -
28/03:00am 17.6 15.0 13.3 76 2.4 E 19 26 10 14 1015.6 1015.6 -
28/02:30am 17.8 14.7 13.3 75 2.5 ESE 22 33 12 18 1015.6 1015.6 -
28/02:00am 17.7 15.0 13.4 76 2.4 ESE 20 32 11 17 1016.0 1016.0 -
28/01:30am 17.6 14.8 13.1 75 2.5 ESE 20 30 11 16 1016.1 1016.1 -
28/01:00am 17.4 14.3 13.5 78 2.2 ESE 22 32 12 17 1016.2 1016.2 -
28/12:30am 17.4 14.7 14.5 83 1.7 ESE 22 32 12 17 1016.1 1016.1 -
28/12:00am 17.3 14.3 14.8 85 1.4 ESE 24 35 13 19 1016.4 1016.4 -
 
Date/Time
EDT
Temp
°C
App
Temp
°C
Dew
Point
°C
Rel
Hum
%
Delta-T
°C
Wind Press
QNH
hPa
Press
MSL
hPa
Rain since
9am
mm
Dir  Spd
km/h
Gust
km/h
Spd
kts
Gust
kts
27/11:30pm 17.3 14.3 14.8 85 1.4 ESE 24 39 13 21 1016.4 1016.4 -
27/11:00pm 17.2 13.8 14.7 85 1.4 ESE 26 39 14 21 1016.7 1016.7 -
27/10:30pm 17.1 13.6 14.4 84 1.5 ESE 26 35 14 19 1016.9 1016.9 -
27/10:00pm 17.2 12.9 14.5 84 1.5 ESE 30 43 16 23 1016.7 1016.7 -
27/09:30pm 17.2 12.9 14.5 84 1.6 ESE 30 43 16 23 1016.5 1016.5 -
27/09:00pm 17.2 13.3 14.5 84 1.5 SE 28 41 15 22 1016.6 1016.6 -
27/08:30pm 17.3 13.5 14.8 85 1.4 SE 28 41 15 22 1016.6 1016.6 -
27/08:00pm 17.4 13.1 14.5 83 1.7 SE 30 46 16 25 1015.8 1015.8 -
27/07:30pm 17.8 11.5 13.5 76 2.4 SE 39 54 21 29 1015.3 1015.3 -
27/07:00pm 17.9 11.4 13.0 73 2.7 SE 39 56 21 30 1015.2 1015.2 -
27/06:30pm 17.9 11.5 12.1 69 3.2 SE 37 50 20 27 1015.6 1015.6 -
27/06:00pm 17.9 11.8 11.7 67 3.4 SE 35 48 19 26 1015.7 1015.7 -
27/05:30pm 17.9 12.0 11.2 65 3.6 SE 33 44 18 24 1016.0 1016.0 -
27/05:00pm 18.0 11.7 9.6 58 4.4 SE 33 48 18 26 1016.4 1016.4 -
27/04:30pm 18.1 12.1 10.2 60 4.2 SE 32 44 17 24 1016.8 1016.8 -
27/04:00pm 18.8 13.0 9.6 55 4.9 SE 30 43 16 23 1017.2 1017.2 -
27/03:30pm 18.8 13.7 9.3 54 5.0 SE 26 41 14 22 1017.4 1017.4 -
27/03:00pm 18.7 12.9 9.5 55 4.8 SE 30 43 16 23 1017.3 1017.3 -
27/02:30pm 18.6 12.4 9.4 55 4.8 SE 32 41 17 22 1017.5 1017.5 -
27/02:00pm 18.4 12.4 8.7 53 5.0 SE 30 43 16 23 1017.7 1017.7 -
27/01:30pm 17.9 11.5 8.5 54 4.8 ESE 32 44 17 24 1017.9 1017.9 -
27/01:00pm 18.1 12.4 8.4 53 5.0 ESE 28 43 15 23 1017.9 1017.9 -
27/12:30pm 18.0 12.3 8.3 53 5.0 ESE 28 41 15 22 1018.2 1018.2 -
27/12:00pm 16.8 10.9 7.4 54 4.7 ESE 28 41 15 22 1018.3 1018.3 -
27/11:30am 16.3 11.2 7.8 57 4.3 ESE 24 39 13 21 1018.3 1018.3 -
27/11:00am 16.6 11.3 8.3 58 4.2 ESE 26 41 14 22 1018.3 1018.3 -
27/10:30am 15.7 10.4 8.4 62 3.7 SE 26 39 14 21 1018.0 1018.0 -
27/10:00am 15.9 9.9 6.9 55 4.4 ESE 28 41 15 22 1017.6 1017.6 -
27/09:30am 15.4 9.0 8.6 64 3.5 SE 32 48 17 26 1017.4 1017.4 -
27/09:00am 15.3 10.6 7.6 60 3.8 SE 22 32 12 17 1017.3 1017.3 -
27/08:30am 14.9 8.8 6.7 58 4.0 SE 28 43 15 23 1017.2 1017.2 -
27/08:00am 15.1 9.3 8.1 63 3.5 SE 28 39 15 21 1016.6 1016.6 -
27/07:30am 14.8 9.5 6.9 59 3.9 ESE 24 35 13 19 1016.2 1016.2 -
27/07:00am 14.6 8.8 6.2 57 4.0 ESE 26 39 14 21 1016.1 1016.1 -
27/06:30am 14.8 10.0 7.4 61 3.7 ESE 22 35 12 19 1016.0 1016.0 -
27/06:00am 14.6 10.1 6.9 60 3.7 SE 20 32 11 17 1015.5 1015.5 -
27/05:30am 14.3 9.3 6.4 59 3.8 SE 22 35 12 19 1015.2 1015.2 -
27/05:00am 14.3 8.6 6.6 60 3.7 SE 26 37 14 20 1015.1 1015.1 -
27/04:30am 13.8 7.5 5.9 59 3.7 SE 28 35 15 19 1014.8 1014.8 -
27/04:00am 13.9 8.0 5.8 58 3.8 SSE 26 35 14 19 1014.6 1014.6 -
27/03:30am 13.9 7.9 5.5 57 4.0 SE 26 39 14 21 1014.7 1014.7 -
27/03:00am 13.7 8.1 5.3 57 3.9 SE 24 37 13 20 1014.7 1014.7 -
27/02:30am 14.1 9.2 6.7 61 3.6 SE 22 33 12 18 1014.6 1014.6 -
27/02:00am 13.8 7.8 5.4 57 3.9 SE 26 37 14 20 1014.6 1014.6 -
27/01:30am 14.0 8.5 6.1 59 3.8 SSE 24 33 13 18 1014.7 1014.7 -
27/01:00am 13.9 8.5 6.3 60 3.6 SSE 24 33 13 18 1014.6 1014.6 -
27/12:30am 13.9 8.4 6.0 59 3.8 SE 24 35 13 19 1014.5 1014.5 -
27/12:00am 13.8 7.8 5.4 57 3.9 SE 26 35 14 19 1014.7 1014.7 -
 
Date/Time
EDT
Temp
°C
App
Temp
°C
Dew
Point
°C
Rel
Hum
%
Delta-T
°C
Wind Press
QNH
hPa
Press
MSL
hPa
Rain since
9am
mm
Dir  Spd
km/h
Gust
km/h
Spd
kts
Gust
kts
26/11:30pm 14.1 7.5 6.0 58 3.9 SE 30 39 16 21 1014.2 1014.2 -
26/11:00pm 14.0 7.7 5.9 58 3.8 SSE 28 35 15 19 1014.3 1014.3 -
26/10:30pm 14.4 8.4 7.0 61 3.6 SSE 28 35 15 19 1013.8 1013.8 -
26/10:00pm 14.8 9.1 8.5 66 3.2 SSE 28 39 15 21 1013.6 1013.6 -
26/09:30pm 14.9 9.6 8.4 65 3.3 SSE 26 35 14 19 1013.1 1013.1 -
26/09:00pm 15.1 9.5 8.8 66 3.2 SSE 28 37 15 20 1012.3 1012.3 -
26/08:30pm 15.1 9.3 7.9 62 3.6 SSE 28 37 15 20 1012.3 1012.3 -
26/08:00pm 15.4 9.8 8.9 65 3.3 SSE 28 37 15 20 1011.5 1011.5 -
26/07:30pm 15.6 9.6 8.8 64 3.5 SSE 30 39 16 21 1010.9 1010.9 -
26/07:00pm 16.1 10.4 9.8 66 3.3 SSE 30 39 16 21 1010.5 1010.5 -
26/06:30pm 16.5 10.7 10.8 69 3.0 SSE 32 39 17 21 1010.0 1010.0 -
26/06:00pm 16.5 10.6 10.4 67 3.2 SSE 32 39 17 21 1009.6 1009.6 -
26/05:30pm 17.2 11.2 10.8 66 3.4 SSE 33 43 18 23 1009.2 1009.2 -
26/05:00pm 16.8 11.1 11.1 69 3.1 SSE 32 39 17 21 1009.1 1009.1 -
26/04:30pm 18.1 12.8 12.5 70 3.1 SSE 32 41 17 22 1009.0 1009.0 -
26/04:00pm 18.0 12.7 12.5 70 3.1 SSE 32 44 17 24 1008.5 1008.5 -
26/03:30pm 18.6 14.5 12.8 69 3.3 S 26 39 14 21 1008.2 1008.2 -
26/03:00pm 18.7 14.6 13.8 73 2.8 S 28 39 15 21 1008.1 1008.1 -
26/02:30pm 19.1 16.3 13.1 68 3.4 SSW 20 28 11 15 1007.8 1007.8 -
26/02:00pm 18.9 16.1 13.1 69 3.3 SSW 20 30 11 16 1007.4 1007.4 -
26/01:30pm 18.6 15.6 12.1 66 3.6 S 19 28 10 15 1007.3 1007.3 -
26/01:00pm 19.3 16.6 13.5 69 3.3 SSW 20 30 11 16 1007.3 1007.3 -
26/12:30pm 19.1 15.7 12.6 66 3.6 SSW 22 28 12 15 1007.0 1007.0 -
26/12:00pm 18.9 16.5 13.7 72 3.0 SSW 19 26 10 14 1006.4 1006.4 -
26/11:30am 18.9 16.4 14.0 73 2.8 SSW 20 28 11 15 1006.0 1006.0 -
26/11:00am 17.1 14.4 13.4 79 2.1 SSW 20 30 11 16 1005.8 1005.8 -
26/10:30am 16.8 14.2 13.7 82 1.8 SSW 20 30 11 16 1005.6 1005.6 -
26/10:00am 17.2 15.2 13.9 81 1.9 S 17 22 9 12 1005.2 1005.2 -
26/09:30am 16.7 14.2 14.2 85 1.4 SSW 20 26 11 14 1004.8 1004.8 -
26/09:00am 17.0 14.6 14.5 85 1.4 SSW 20 30 11 16 1004.2 1004.2 -
26/08:30am 16.9 15.0 14.2 84 1.5 SSW 17 24 9 13 1003.8 1003.8 -
26/08:00am 16.6 14.4 14.4 87 1.3 SSW 19 26 10 14 1003.3 1003.3 -
26/07:30am 16.2 13.3 13.9 86 1.3 SSW 22 30 12 16 1002.9 1002.9 -
26/07:00am 16.4 14.2 14.8 90 0.9 SSW 20 28 11 15 1002.5 1002.5 -
26/06:30am 16.2 13.2 14.9 92 0.7 SSW 24 32 13 17 1002.0 1002.0 -
26/06:00am 16.5 14.6 15.7 95 0.5 SSW 20 28 11 15 1001.6 1001.6 -
26/05:30am 16.4 14.5 15.8 96 0.4 SSW 20 28 11 15 1001.0 1001.0 -
26/05:00am 16.4 14.6 15.9 97 0.3 SSW 20 30 11 16 1000.5 1000.5 -
26/04:30am 16.5 14.0 16.2 98 0.2 SSW 24 35 13 19 1000.4 1000.4 -
26/04:00am 16.5 14.1 16.3 99 0.1 SSW 24 33 13 18 1000.2 1000.2 -
26/03:30am 16.6 13.8 16.4 99 0.1 SSW 26 33 14 18 1000.2 1000.2 -
26/03:00am 17.4 16.1 17.2 99 0.1 SSW 20 28 11 15 1000.2 1000.2 -
26/02:30am 17.4 16.6 17.2 99 0.1 SSW 17 24 9 13 1000.2 1000.2 -
26/02:00am 17.3 16.5 17.1 99 0.1 SSW 17 22 9 12 1000.1 1000.1 -
26/01:30am 17.4 17.4 17.2 99 0.1 S 13 19 7 10 1000.0 1000.0 -
26/01:00am 17.7 18.2 17.5 99 0.1 S 11 15 6 8 1000.0 1000.0 -
26/12:30am 17.9 18.9 17.7 99 0.1 S 9 15 5 8 1000.0 1000.0 -
26/12:00am 18.1 20.1 17.9 99 0.1 S 4 6 2 3 999.9 999.9 -
 
Date/Time
EDT
Temp
°C
App
Temp
°C
Dew
Point
°C
Rel
Hum
%
Delta-T
°C
Wind Press
QNH
hPa
Press
MSL
hPa
Rain since
9am
mm
Dir  Spd
km/h
Gust
km/h
Spd
kts
Gust
kts
25/11:30pm 18.0 19.6 17.8 99 0.1 S 6 7 3 4 999.6 999.6 -
25/11:00pm 17.9 19.4 17.6 98 0.2 S 6 9 3 5 999.6 999.6 -
25/10:30pm 18.0 18.2 17.7 98 0.2 SSW 13 17 7 9 1000.0 1000.0 -
25/10:00pm 18.2 18.8 17.7 97 0.3 SW 11 15 6 8 1000.2 1000.2 -
25/09:30pm 18.4 20.4 17.8 96 0.4 SSW 4 6 2 3 999.9 999.9 -
25/09:00pm 18.4 20.7 17.8 96 0.4 E 2 6 1 3 999.2 999.2 -
25/08:30pm 18.5 20.5 17.9 96 0.4 E 4 6 2 3 999.4 999.4 -
25/08:00pm 18.3 19.8 17.5 95 0.5 E 6 9 3 5 999.3 999.3 -
25/07:30pm 18.2 20.0 17.4 95 0.5 ENE 4 9 2 5 999.5 999.5 -
25/07:00pm 18.4 19.9 17.6 95 0.5 ENE 6 7 3 4 999.4 999.4 -
25/06:30pm 18.5 20.4 17.7 95 0.5 SSE 4 6 2 3 999.5 999.5 -
25/06:00pm 18.4 19.7 17.6 95 0.5 SSW 7 11 4 6 1000.2 1000.2 -
25/05:30pm 18.6 19.4 17.4 93 0.7 S 9 11 5 6 999.4 999.4 -
25/05:00pm 18.9 20.8 17.6 92 0.8 S 4 6 2 3 1000.0 1000.0 -

Other formats

Comma delimited format used in spreadsheet applications
http://www.bom.gov.au/fwo/IDV60801/IDV60801.94830.axf

JavaScript Object Notation format (JSON) in row-major order
http://www.bom.gov.au/fwo/IDV60801/IDV60801.94830.json

Data quality

Most of these data are generated automatically and are frequently updated. Quality checks on data are not normally performed. It is possible for incorrect values to appear. Refer to information at About Latest Weather Observations and please check the disclaimer before using these data.